Latest Weather Observations for Mildura

IDN60801

Issued at 1:34 pm EDT Wednesday 4 March 2015 (issued every 30 minutes, with the page automatically refreshed every 10 minutes)

About weather observations | Map of weather stations | Latest weather observations for NSW | Other Formats
Station Details ID: 076031 Name: MILDURA AIRPORT Lat: -34.24 Lon: 142.09 Height: 50.0 m
Data from the previous 72 hours. | See also: Recent months at Mildura
Date/Time
EDT
Temp
°C
App
Temp
°C
Dew
Point
Rel
Hum
%
Delta-T
°C
Wind Press
QNH
hPa
Press
MSL
hPa
Rain
since 9 am
mm
Dir
 
Spd
km/h
Gust
km/h
Spd
kts
Gust
kts
04/01:30pm 24.3 20.2 4.6 28 9.8 WSW 15 24 8 13 1016.4 1016.3 0.0
04/01:00pm 23.8 20.4 6.1 32 9.0 WSW 13 20 7 11 1016.7 1016.6 0.0
04/12:30pm 22.9 19.8 7.4 37 8.1 SSW 13 19 7 10 1017.4 1017.2 0.0
04/12:00pm 21.6 18.8 8.5 43 6.9 SSW 13 22 7 12 1017.7 1017.5 0.0
04/11:30am 21.0 17.6 7.6 42 6.9 SSE 15 28 8 15 1017.8 1017.6 0.0
04/11:00am 20.5 17.5 7.5 43 6.7 S 13 24 7 13 1017.9 1017.7 0.0
04/10:30am 19.7 16.7 7.8 46 6.1 S 13 26 7 14 1018.1 1017.9 0.0
04/10:00am 18.6 14.5 8.0 50 5.4 S 19 28 10 15 1018.0 1017.8 0.0
04/09:30am 17.6 13.3 7.9 53 4.9 S 20 33 11 18 1017.9 1017.7 0.0
04/09:00am 16.7 13.0 8.1 57 4.4 S 17 28 9 15 1017.8 1017.6 0.0
04/08:30am 16.0 12.7 8.2 60 4.0 S 15 22 8 12 1017.6 1017.4 0.0
04/08:00am 15.5 11.8 7.8 60 3.9 S 17 26 9 14 1017.3 1017.1 0.0
04/07:30am 15.4 12.4 7.7 60 3.8 S 13 22 7 12 1016.5 1016.4 0.0
04/07:00am 15.6 11.8 7.4 58 4.1 S 17 28 9 15 1016.1 1016.0 0.0
04/06:30am 16.1 11.8 7.1 55 4.5 S 19 33 10 18 1015.7 1015.6 0.0
04/06:00am 16.7 12.4 6.8 52 4.9 S 19 28 10 15 1015.5 1015.4 0.0
04/05:30am 17.3 13.3 6.8 50 5.2 S 17 32 9 17 1015.2 1015.1 0.0
04/05:00am 17.9 13.6 7.0 49 5.5 S 19 30 10 16 1015.2 1015.1 0.0
04/04:30am 18.5 14.6 7.0 47 5.8 S 17 26 9 14 1014.9 1014.8 0.0
04/04:00am 18.8 14.9 6.9 46 6.0 SSW 17 24 9 13 1014.8 1014.7 0.0
04/03:30am 19.1 15.1 6.6 44 6.3 SSW 17 24 9 13 1015.1 1015.0 0.0
04/03:00am 19.7 16.0 6.1 41 6.8 S 15 24 8 13 1015.1 1015.0 0.0
04/02:30am 20.5 16.2 5.3 37 7.5 S 17 24 9 13 1015.5 1015.4 0.0
04/02:00am 21.2 17.3 3.4 31 8.5 S 13 22 7 12 1015.5 1015.4 0.0
04/01:30am 22.0 18.4 2.7 28 9.2 S 11 17 6 9 1015.6 1015.5 0.0
04/01:00am 22.7 19.1 2.8 27 9.5 S 11 17 6 9 1015.6 1015.5 0.0
04/12:30am 23.4 19.4 2.8 26 9.9 SSW 13 20 7 11 1015.6 1015.5 0.0
04/12:00am 23.3 20.0 4.3 29 9.4 SSW 11 15 6 8 1015.5 1015.4 0.0
 
Date/Time
EDT
Temp
°C
App
Temp
°C
Dew
Point
Rel
Hum
%
Delta-T
°C
Wind Press
QNH
hPa
Press
MSL
hPa
Rain
since 9 am
mm
Dir
 
Spd
km/h
Gust
km/h
Spd
kts
Gust
kts
03/11:30pm 24.5 20.8 4.3 27 10.0 SSW 13 19 7 10 1015.4 1015.3 0.0
03/11:00pm 25.0 21.3 4.7 27 10.2 SSW 13 24 7 13 1015.5 1015.4 0.0
03/10:30pm 25.4 22.1 4.5 26 10.5 SSW 11 19 6 10 1015.4 1015.3 0.0
03/10:00pm 25.4 22.4 4.0 25 10.6 SW 9 15 5 8 1015.2 1015.1 0.0
03/09:30pm 26.0 23.0 3.9 24 11.0 SSW 9 13 5 7 1014.8 1014.7 0.0
03/09:00pm 26.9 23.5 4.0 23 11.5 SSW 11 17 6 9 1014.4 1014.3 0.0
03/08:30pm 28.0 24.3 4.3 22 12.1 SSW 13 19 7 10 1013.9 1013.8 0.0
03/08:00pm 29.2 25.1 4.6 21 12.7 SW 15 22 8 12 1013.5 1013.4 0.0
03/07:30pm 30.4 26.7 4.2 19 13.5 SSW 13 19 7 10 1013.2 1013.1 0.0
03/07:00pm 30.9 26.5 4.6 19 13.7 SW 17 24 9 13 1013.1 1013.0 0.0
03/06:30pm 31.0 27.3 4.7 19 13.7 SW 13 20 7 11 1013.0 1012.9 0.0
03/06:00pm 30.6 26.1 4.4 19 13.6 WSW 17 24 9 13 1013.2 1013.1 0.0
03/05:30pm 31.3 26.8 4.2 18 14.0 WSW 17 28 9 15 1013.2 1013.1 0.0
03/05:00pm 31.4 26.7 3.4 17 14.3 SSW 17 28 9 15 1013.1 1013.0 0.0
03/04:30pm 31.7 27.1 3.7 17 14.4 WSW 17 24 9 13 1013.3 1013.2 0.0
03/04:00pm 31.3 27.4 3.4 17 14.3 SSW 13 24 7 13 1013.7 1013.6 0.0
03/03:30pm 31.0 26.7 3.1 17 14.2 SW 15 26 8 14 1014.1 1014.0 0.0
03/03:00pm 30.9 26.6 3.0 17 14.1 S 15 24 8 13 1014.3 1014.2 0.0
03/02:30pm 29.9 26.1 3.8 19 13.3 SSW 13 22 7 12 1014.6 1014.5 0.0
03/02:00pm 30.1 25.9 4.0 19 13.4 SSE 15 24 8 13 1015.0 1014.9 0.0
03/01:30pm 29.4 25.5 3.4 19 13.1 S 13 26 7 14 1015.5 1015.4 0.0
03/01:00pm 29.3 25.0 3.3 19 13.1 S 15 24 8 13 1015.8 1015.7 0.0
03/12:30pm 28.7 24.7 2.8 19 12.9 S 13 22 7 12 1016.2 1016.1 0.0
03/12:00pm 27.5 22.8 3.2 21 12.1 S 17 24 9 13 1016.5 1016.4 0.0
03/11:30am 26.7 22.5 3.9 23 11.4 S 15 20 8 11 1016.7 1016.6 0.0
03/11:00am 25.5 22.2 4.6 26 10.5 S 11 17 6 9 1016.7 1016.6 0.0
03/10:30am 25.1 21.8 4.8 27 10.2 SSE 11 17 6 9 1016.5 1016.4 0.0
03/10:00am 24.0 20.3 4.4 28 9.7 SSE 13 19 7 10 1016.3 1016.2 0.0
03/09:30am 22.0 18.5 5.4 34 8.3 S 13 19 7 10 1016.2 1016.1 0.0
03/09:00am 21.6 18.2 5.9 36 7.9 S 13 19 7 10 1015.8 1015.7 0.0
03/08:30am 20.8 17.4 6.0 38 7.4 S 13 19 7 10 1015.5 1015.4 0.0
03/08:00am 20.6 17.2 5.8 38 7.4 S 13 17 7 9 1015.2 1015.1 0.0
03/07:30am 20.4 16.8 5.2 37 7.5 SSW 13 17 7 9 1014.7 1014.6 0.0
03/07:00am 20.2 17.2 3.9 34 7.8 S 9 13 5 7 1014.2 1014.1 0.0
03/06:30am 20.5 16.5 2.8 31 8.3 SSW 13 17 7 9 1014.2 1014.1 0.0
03/06:00am 20.9 17.7 3.2 31 8.4 SSW 9 13 5 7 1014.0 1013.9 0.0
03/05:30am 20.6 17.2 2.0 29 8.6 SSW 9 11 5 6 1013.7 1013.6 0.0
03/05:00am 21.0 17.5 1.3 27 9.0 S 9 13 5 7 1013.6 1013.5 0.0
03/04:30am 20.8 17.4 1.6 28 8.8 S 9 13 5 7 1013.7 1013.6 0.0
03/04:00am 20.2 17.0 0.6 27 8.8 SSW 7 11 4 6 1013.6 1013.5 0.0
03/03:30am 20.8 17.6 0.6 26 9.1 S 7 11 4 6 1013.6 1013.5 0.0
03/03:00am 20.8 17.5 0.1 25 9.2 S 7 11 4 6 1013.4 1013.3 0.0
03/02:30am 20.7 17.4 0.0 25 9.2 S 7 11 4 6 1013.5 1013.4 0.0
03/02:00am 21.1 17.8 -0.2 24 9.5 S 7 11 4 6 1013.8 1013.7 0.0
03/01:30am 21.7 18.3 -0.3 23 9.8 S 7 11 4 6 1014.0 1013.9 0.0
03/01:00am 22.8 19.0 -0.6 21 10.5 S 9 13 5 7 1014.3 1014.2 0.0
03/12:30am 23.2 19.4 -1.0 20 10.8 S 9 15 5 8 1014.2 1014.1 0.0
03/12:00am 23.8 19.6 -1.2 19 11.2 S 11 20 6 11 1014.0 1013.9 0.0
 
Date/Time
EDT
Temp
°C
App
Temp
°C
Dew
Point
Rel
Hum
%
Delta-T
°C
Wind Press
QNH
hPa
Press
MSL
hPa
Rain
since 9 am
mm
Dir
 
Spd
km/h
Gust
km/h
Spd
kts
Gust
kts
02/11:30pm 23.9 19.2 -1.8 18 11.4 S 13 19 7 10 1014.1 1014.0 0.0
02/11:00pm 24.5 19.8 -2.1 17 11.7 S 13 22 7 12 1014.2 1014.1 0.0
02/10:30pm 24.9 20.0 -3.5 15 12.3 S 13 20 7 11 1014.1 1014.0 0.0
02/10:00pm 25.6 20.8 -5.9 12 13.1 S 11 20 6 11 1013.9 1013.8 0.0
02/09:30pm 25.5 21.2 -4.9 13 12.8 SSW 9 15 5 8 1013.8 1013.7 0.0
02/09:00pm 25.9 21.5 -5.6 12 13.2 S 9 13 5 7 1013.2 1013.1 0.0
02/08:30pm 26.6 22.3 -5.1 12 13.5 SSE 9 13 5 7 1012.7 1012.6 0.0
02/08:00pm 27.7 23.7 -5.4 11 14.1 S 7 11 4 6 1012.4 1012.3 0.0
02/07:30pm 28.8 24.0 -5.8 10 14.8 S 11 17 6 9 1012.0 1011.8 0.0
02/07:00pm 28.8 24.8 -2.3 13 14.2 SE 9 15 5 8 1011.8 1011.6 0.0
02/06:30pm 29.9 24.8 -5.0 10 15.3 SE 13 20 7 11 1011.5 1011.3 0.0
02/06:00pm 29.9 24.6 -3.7 11 15.1 SE 15 24 8 13 1011.6 1011.4 0.0
02/05:30pm 29.7 25.6 -2.7 12 14.8 SE 9 15 5 8 1011.4 1011.2 0.0
02/05:00pm 30.1 25.5 -1.3 13 14.7 E 13 19 7 10 1011.5 1011.3 0.0
02/04:30pm 29.0 24.4 -1.2 14 14.0 ESE 13 24 7 13 1011.6 1011.4 0.0
02/04:00pm 29.2 24.5 -2.0 13 14.3 ESE 13 20 7 11 1012.0 1011.8 0.0
02/03:30pm 28.6 24.5 -0.5 15 13.7 E 11 17 6 9 1012.3 1012.2 0.0
02/03:00pm 27.6 23.2 0.4 17 12.9 ESE 13 20 7 11 1013.0 1012.9 0.0
02/02:30pm 27.4 24.1 2.5 20 12.2 SSW 9 19 5 10 1013.5 1013.4 0.0
02/02:00pm 26.5 22.8 2.4 21 11.7 SSE 11 17 6 9 1013.8 1013.7 0.0
02/01:30pm 26.0 22.5 3.3 23 11.2 SSE 11 17 6 9 1014.7 1014.6 0.0
02/01:00pm 24.9 21.8 3.5 25 10.5 S 9 15 5 8 1015.2 1015.1 0.0
02/12:30pm 25.6 22.4 5.2 27 10.4 S 11 19 6 10 1015.6 1015.5 0.0
02/12:00pm 23.7 19.7 3.1 26 10.0 SE 13 24 7 13 1015.5 1015.4 0.0
02/11:30am 22.8 18.9 3.4 28 9.4 SSE 13 20 7 11 1016.5 1016.4 0.0
02/11:00am 21.7 17.9 5.6 35 8.0 ESE 15 19 8 10 1016.4 1016.3 0.0
02/10:30am 20.5 16.7 5.7 38 7.4 E 15 20 8 11 1016.5 1016.4 0.0
02/10:00am 19.9 15.4 6.3 41 6.8 ESE 19 26 10 14 1016.4 1016.3 0.0
02/09:30am 18.3 13.6 6.2 45 6.0 ESE 20 28 11 15 1016.5 1016.4 0.0
02/09:00am 17.6 13.7 7.1 50 5.3 ESE 17 22 9 12 1016.9 1016.7 0.0
02/08:30am 15.6 12.2 7.6 59 4.0 SE 15 24 8 13 1016.7 1016.6 0.0
02/08:00am 15.2 12.7 8.0 62 3.6 SE 11 17 6 9 1016.3 1016.2 0.0
02/07:30am 13.7 11.8 7.7 67 3.0 SE 7 9 4 5 1016.2 1016.1 0.0
02/07:00am 13.9 11.6 7.4 65 3.2 ESE 9 13 5 7 1015.6 1015.5 0.0
02/06:30am 14.2 11.5 7.5 64 3.3 ESE 11 15 6 8 1015.2 1015.1 0.0
02/06:00am 14.6 12.3 7.4 62 3.6 ESE 9 13 5 7 1015.2 1015.1 0.0
02/05:30am 15.2 12.5 7.2 59 4.0 ESE 11 15 6 8 1015.0 1014.9 0.0
02/05:00am 16.0 12.5 7.2 56 4.4 ESE 15 20 8 11 1014.7 1014.6 0.0
02/04:30am 16.1 12.6 7.1 55 4.5 SE 15 19 8 10 1014.7 1014.6 0.0
02/04:00am 15.9 12.7 6.9 55 4.4 ESE 13 20 7 11 1014.7 1014.6 0.0
02/03:30am 16.0 13.5 6.4 53 4.7 SE 9 13 5 7 1015.1 1015.0 0.0
02/03:00am 17.1 13.8 6.3 49 5.3 SSE 13 19 7 10 1014.8 1014.7 0.0
02/02:30am 17.6 14.3 6.2 47 5.6 SSE 13 19 7 10 1015.0 1014.9 0.0
02/02:00am 17.8 14.4 5.7 45 5.9 SSE 13 17 7 9 1015.0 1014.9 0.0
02/01:30am 18.4 14.9 5.3 42 6.4 SSE 13 20 7 11 1015.0 1014.9 0.0
02/01:00am 18.4 14.9 5.3 42 6.4 SSE 13 17 7 9 1015.1 1015.0 0.0
02/12:30am 18.6 15.4 5.1 41 6.5 SSE 11 15 6 8 1014.9 1014.8 0.0
02/12:00am 18.8 16.3 4.6 39 6.8 S 7 9 4 5 1015.0 1014.9 0.0
 
Date/Time
EDT
Temp
°C
App
Temp
°C
Dew
Point
Rel
Hum
%
Delta-T
°C
Wind Press
QNH
hPa
Press
MSL
hPa
Rain
since 9 am
mm
Dir
 
Spd
km/h
Gust
km/h
Spd
kts
Gust
kts
01/11:30pm 19.8 16.1 4.7 37 7.3 SSE 13 17 7 9 1014.8 1014.7 0.0
01/11:00pm 20.5 16.7 4.1 34 7.9 SSE 13 15 7 8 1015.0 1014.9 0.0
01/10:30pm 21.1 17.7 4.2 33 8.2 SSE 11 17 6 9 1014.9 1014.8 0.0
01/10:00pm 20.9 17.9 4.0 33 8.1 SE 9 13 5 7 1014.8 1014.7 0.0
01/09:30pm 21.6 18.9 3.8 31 8.6 S 7 9 4 5 1014.8 1014.7 0.0
01/09:00pm 22.4 19.4 4.0 30 9.0 SE 9 11 5 6 1014.2 1014.1 0.0
01/08:30pm 23.8 20.7 3.7 27 9.8 SSE 9 13 5 7 1013.9 1013.8 0.0
01/08:00pm 25.2 21.3 3.2 24 10.8 SSE 13 20 7 11 1013.5 1013.4 0.0
01/07:30pm 26.3 21.2 2.9 22 11.5 SE 19 28 10 15 1013.2 1013.1 0.0
01/07:00pm 27.1 21.7 2.2 20 12.1 SSE 20 35 11 19 1013.1 1013.0 0.0
01/06:30pm 27.7 22.5 2.7 20 12.3 SSE 19 35 10 19 1012.9 1012.8 0.0
01/06:00pm 27.5 22.2 3.2 21 12.1 S 20 33 11 18 1012.7 1012.6 0.0
01/05:30pm 27.1 21.0 2.9 21 11.9 S 24 33 13 18 1012.7 1012.6 0.0
01/05:00pm 26.7 21.7 4.5 24 11.2 SSE 20 30 11 16 1012.7 1012.6 0.0
01/04:30pm 27.2 22.5 3.0 21 12.0 SSE 17 32 9 17 1012.9 1012.8 0.0
01/04:00pm 26.8 21.6 3.3 22 11.7 S 20 32 11 17 1013.1 1013.0 0.0
01/03:30pm 25.7 20.6 3.0 23 11.1 S 19 30 10 16 1013.6 1013.5 0.0
01/03:00pm 25.9 21.8 4.4 25 10.8 S 15 28 8 15 1013.9 1013.8 0.0
01/02:30pm 25.4 20.7 5.1 27 10.3 S 19 35 10 19 1013.8 1013.7 0.0
01/02:00pm 24.6 19.3 4.9 28 9.9 S 22 35 12 19 1014.2 1014.1 0.0

Other Formats:

Comma delimited format used in spreadsheet applications
http://www.bom.gov.au/fwo/IDN60801/IDN60801.94693.axf

JavaScript Object Notation format (JSON) in row-major order
http://www.bom.gov.au/fwo/IDN60801/IDN60801.94693.json